Orange, Massachusetts
Current Conditions -  °F | °C
As of 10:52 AM on Monday 24 Nov 2014 (Local Time) from KORE Reporting Station
Overcast Overcast  
Wind Chill: 60°   Ceiling: 1400
Heat Index: 60°   Visibility: 10mi
Dew Point: 59°   Wind: 12mph
Humidity: 96%   Direction: 170°S
Pressure: 29.66"   Gusts: NA
Location:  42.59°N, 72.3°W
Report Text: KORE 241552Z AUTO 17010KT 10SM OVC014 16/15 A2966 RMK AO2 RAE44 SLP046 P0004 T01560150
Loading
Personal Weather Stations






























Interactive Weather Map New forecast layout! Learn more

10-Day Weather Forecast

Advertisements
Track Severe Weather on mobile